createdAt,value
2023-02-21T00:02:42.421Z,7.67
2023-02-21T00:05:27.157Z,7.70
2023-02-21T00:08:12.155Z,7.69
2023-02-21T00:10:56.897Z,7.67
2023-02-21T00:13:41.710Z,7.68
2023-02-21T00:16:26.890Z,7.64
2023-02-21T00:19:11.607Z,7.64
2023-02-21T00:21:56.710Z,7.55
2023-02-21T00:24:41.348Z,7.57
2023-02-21T00:27:26.121Z,7.59
2023-02-21T00:30:10.971Z,7.56
2023-02-21T00:32:56.061Z,7.52
2023-02-21T00:35:41.544Z,7.52
2023-02-21T00:38:26.841Z,7.53
2023-02-21T00:41:12.448Z,7.50
2023-02-21T00:43:57.864Z,7.50
2023-02-21T00:46:43.298Z,7.48
2023-02-21T00:49:28.085Z,7.44
2023-02-21T00:52:14.152Z,7.47
2023-02-21T00:54:58.911Z,7.48
2023-02-21T00:57:43.753Z,7.46
2023-02-21T01:00:36.103Z,7.47
2023-02-21T01:03:21.440Z,7.49
2023-02-21T01:06:06.162Z,7.47
2023-02-21T01:08:51.491Z,7.45
2023-02-21T01:11:38.833Z,7.42
2023-02-21T01:14:26.807Z,7.49
2023-02-21T01:17:13.817Z,7.44
2023-02-21T01:20:00.357Z,7.39
2023-02-21T01:22:45.611Z,7.38
2023-02-21T01:25:30.407Z,7.43
2023-02-21T01:28:15.224Z,7.43
2023-02-21T01:30:59.971Z,7.37
2023-02-21T01:33:44.803Z,7.32
2023-02-21T01:36:29.973Z,7.34
2023-02-21T01:39:14.797Z,7.38
2023-02-21T01:42:00.180Z,7.37
2023-02-21T01:45:00.431Z,7.30
2023-02-21T01:47:46.128Z,7.30
2023-02-21T01:50:40.935Z,7.31
2023-02-21T01:53:31.629Z,7.29
2023-02-21T01:56:19.096Z,7.25
2023-02-21T01:59:07.954Z,7.27
2023-02-21T02:02:36.674Z,7.31
2023-02-21T02:05:23.971Z,7.28
2023-02-21T02:08:11.266Z,7.31
2023-02-21T02:10:56.495Z,7.25
2023-02-21T02:13:31.098Z,7.24
2023-02-21T02:16:10.335Z,7.23
2023-02-21T02:18:58.617Z,7.31
2023-02-21T02:21:50.239Z,7.30
2023-02-21T02:24:25.585Z,7.24
2023-02-21T02:27:25.658Z,7.28
2023-02-21T02:30:17.350Z,7.30
2023-02-21T02:33:01.987Z,7.26
2023-02-21T02:35:33.880Z,7.25
2023-02-21T02:38:15.525Z,7.25
2023-02-21T02:40:59.621Z,7.20
2023-02-21T02:43:51.381Z,7.24
2023-02-21T02:46:21.448Z,7.18
2023-02-21T02:48:55.347Z,7.16
2023-02-21T02:51:22.482Z,7.15
2023-02-21T02:53:49.956Z,7.18
2023-02-21T02:56:17.665Z,7.19
2023-02-21T02:58:52.460Z,7.17
2023-02-21T03:01:30.715Z,7.17
2023-02-21T03:04:22.158Z,7.14
2023-02-21T03:07:06.600Z,7.16
2023-02-21T03:09:51.461Z,7.13
2023-02-21T03:12:35.513Z,7.09
2023-02-21T03:15:17.690Z,7.15
2023-02-21T03:17:50.709Z,7.15
2023-02-21T03:20:18.280Z,7.15
2023-02-21T03:22:46.409Z,7.12
2023-02-21T03:25:15.028Z,7.10
2023-02-21T03:27:43.166Z,7.10
2023-02-21T03:30:10.946Z,7.08
2023-02-21T03:32:43.752Z,7.08
2023-02-21T03:35:10.107Z,7.06
2023-02-21T03:37:42.212Z,7.10
2023-02-21T03:40:13.603Z,7.06
2023-02-21T03:42:40.010Z,7.03
2023-02-21T03:45:06.574Z,7.02
2023-02-21T03:47:32.985Z,7.02
2023-02-21T03:49:59.320Z,7.02
2023-02-21T03:52:25.692Z,7.03
2023-02-21T03:54:52.050Z,7.03
2023-02-21T03:57:18.501Z,7.00
2023-02-21T03:59:45.317Z,6.99
2023-02-21T04:02:11.704Z,7.00
2023-02-21T04:04:38.141Z,6.95
2023-02-21T04:07:04.512Z,6.96
2023-02-21T04:09:30.894Z,6.94
2023-02-21T04:11:57.380Z,6.98
2023-02-21T04:14:23.734Z,6.97
2023-02-21T04:16:50.189Z,7.00
2023-02-21T04:19:16.524Z,6.92
2023-02-21T04:21:42.948Z,6.91
2023-02-21T04:24:09.364Z,6.90
2023-02-21T04:26:35.802Z,6.97
2023-02-21T04:29:02.934Z,6.95
2023-02-21T04:31:29.351Z,6.96
2023-02-21T04:34:10.605Z,6.98
2023-02-21T04:36:38.479Z,6.83
2023-02-21T04:39:05.808Z,6.78
2023-02-21T04:41:33.195Z,6.71
2023-02-21T04:43:59.531Z,6.61
2023-02-21T04:46:26.141Z,6.59
2023-02-21T04:48:53.379Z,6.60
2023-02-21T04:51:22.613Z,6.62
2023-02-21T04:53:50.048Z,6.62
2023-02-21T04:56:19.458Z,6.59
2023-02-21T04:58:46.289Z,6.60
2023-02-21T05:01:14.424Z,6.58
2023-02-21T05:03:41.138Z,6.57
2023-02-21T05:06:07.929Z,6.54
2023-02-21T05:08:35.990Z,6.50
2023-02-21T05:11:02.827Z,6.50
2023-02-21T05:13:29.453Z,6.54
2023-02-21T05:15:55.782Z,6.49
2023-02-21T05:18:28.818Z,6.48
2023-02-21T05:20:55.658Z,6.46
2023-02-21T05:23:34.212Z,6.44
2023-02-21T05:26:12.574Z,6.45
2023-02-21T05:28:40.542Z,6.45
2023-02-21T05:31:07.702Z,6.41
2023-02-21T05:33:34.279Z,6.38
2023-02-21T05:36:00.627Z,6.41
2023-02-21T05:38:27.304Z,6.39
2023-02-21T05:40:53.997Z,6.44
2023-02-21T05:43:20.505Z,6.42
2023-02-21T05:45:46.933Z,6.44
2023-02-21T05:48:13.374Z,6.39
2023-02-21T05:50:39.809Z,6.41
2023-02-21T05:53:07.140Z,6.39
2023-02-21T05:55:33.553Z,6.41
2023-02-21T05:57:59.939Z,6.43
2023-02-21T06:00:29.668Z,6.43
2023-02-21T06:02:56.805Z,6.40
2023-02-21T06:05:23.800Z,6.43
2023-02-21T06:07:50.258Z,6.43
2023-02-21T06:10:17.898Z,6.41
2023-02-21T06:12:44.344Z,6.47
2023-02-21T06:15:12.712Z,6.47
2023-02-21T06:17:40.454Z,6.46
2023-02-21T06:20:07.799Z,6.40
2023-02-21T06:22:34.246Z,6.44
2023-02-21T06:25:00.623Z,6.43
2023-02-21T06:27:27.005Z,6.40
2023-02-21T06:29:53.341Z,6.45
2023-02-21T06:32:19.716Z,6.41
2023-02-21T06:34:46.278Z,6.42
2023-02-21T06:37:12.906Z,6.40
2023-02-21T06:39:39.940Z,6.43
2023-02-21T06:42:06.604Z,6.46
2023-02-21T06:44:32.955Z,6.45
2023-02-21T06:46:59.319Z,6.46
2023-02-21T06:49:25.650Z,6.50
2023-02-21T06:51:52.027Z,6.49
2023-02-21T06:54:18.431Z,6.43
2023-02-21T06:56:44.778Z,6.49
2023-02-21T06:59:11.381Z,6.51
2023-02-21T07:01:37.773Z,6.50
2023-02-21T07:04:04.454Z,6.47
2023-02-21T07:06:33.216Z,6.46
2023-02-21T07:08:59.576Z,6.46
2023-02-21T07:11:25.995Z,6.47
2023-02-21T07:13:54.354Z,6.46
2023-02-21T07:16:21.072Z,6.49
2023-02-21T07:18:47.587Z,6.46
2023-02-21T07:21:15.423Z,6.54
2023-02-21T07:23:45.267Z,6.49
2023-02-21T07:26:12.253Z,6.55
2023-02-21T07:28:38.708Z,6.58
2023-02-21T07:31:05.345Z,6.59
2023-02-21T07:33:32.069Z,6.59
2023-02-21T07:35:58.490Z,6.61
2023-02-21T07:38:28.198Z,6.64
2023-02-21T07:40:55.946Z,6.69
2023-02-21T07:43:22.358Z,6.67
2023-02-21T07:45:48.709Z,6.65
2023-02-21T07:48:15.207Z,6.65
2023-02-21T07:50:45.482Z,6.68
2023-02-21T07:53:13.333Z,6.64
2023-02-21T07:55:39.748Z,6.64
2023-02-21T07:58:06.449Z,6.74
2023-02-21T08:00:32.820Z,6.79
2023-02-21T08:02:59.832Z,6.80
2023-02-21T08:05:26.431Z,6.83
2023-02-21T08:07:53.154Z,6.79
2023-02-21T08:10:26.997Z,6.85
2023-02-21T08:12:53.666Z,6.88
2023-02-21T08:15:20.061Z,6.91
2023-02-21T08:17:50.132Z,6.91
2023-02-21T08:20:17.171Z,6.89
2023-02-21T08:22:43.616Z,6.90
2023-02-21T08:25:11.483Z,6.90
2023-02-21T08:27:41.669Z,6.96
2023-02-21T08:30:11.127Z,7.00
2023-02-21T08:32:37.589Z,7.01
2023-02-21T08:35:06.226Z,7.00
2023-02-21T08:37:36.226Z,7.02
2023-02-21T08:40:04.309Z,7.02
2023-02-21T08:42:30.763Z,7.04
2023-02-21T08:44:57.606Z,7.09
2023-02-21T08:47:24.061Z,7.10
2023-02-21T08:49:50.472Z,7.08
2023-02-21T08:52:18.839Z,7.13
2023-02-21T08:54:46.026Z,7.15
2023-02-21T08:57:13.053Z,7.24
2023-02-21T08:59:44.961Z,7.26
2023-02-21T09:02:16.904Z,7.25
2023-02-21T09:04:44.108Z,7.28
2023-02-21T09:07:16.725Z,7.28
2023-02-21T09:09:43.145Z,7.32
2023-02-21T09:12:09.839Z,7.37
2023-02-21T09:14:37.811Z,7.45
2023-02-21T09:17:05.905Z,7.45
2023-02-21T09:19:32.814Z,7.43
2023-02-21T09:22:01.618Z,7.42
2023-02-21T09:24:28.366Z,7.38
2023-02-21T09:26:58.898Z,7.35
2023-02-21T09:29:43.747Z,7.27
2023-02-21T09:32:12.160Z,7.27
2023-02-21T09:34:38.777Z,7.33
2023-02-21T09:37:06.028Z,7.36
2023-02-21T09:39:32.434Z,7.34
2023-02-21T09:41:59.036Z,7.41
2023-02-21T09:44:28.890Z,7.42
2023-02-21T09:47:01.616Z,7.50
2023-02-21T09:49:35.431Z,7.55
2023-02-21T09:52:02.996Z,7.53
2023-02-21T09:54:39.031Z,7.55
2023-02-21T09:57:11.316Z,7.62
2023-02-21T09:59:37.987Z,7.66
2023-02-21T10:02:10.135Z,7.67
2023-02-21T10:05:03.227Z,7.67
2023-02-21T10:07:55.970Z,7.68
2023-02-21T10:10:33.997Z,7.70
2023-02-21T10:13:30.558Z,7.76
2023-02-21T10:16:05.106Z,7.83
2023-02-21T10:18:38.846Z,7.85
2023-02-21T10:21:16.080Z,7.94
2023-02-21T10:23:48.602Z,7.95
2023-02-21T10:26:38.034Z,7.97
2023-02-21T10:29:15.333Z,8.03
2023-02-21T10:31:43.355Z,8.12
2023-02-21T10:34:23.431Z,8.18
2023-02-21T10:36:50.852Z,8.17
2023-02-21T10:39:21.346Z,8.17
2023-02-21T10:41:49.680Z,8.19
2023-02-21T10:44:22.225Z,8.21
2023-02-21T10:47:19.307Z,8.23
2023-02-21T10:50:01.966Z,8.26
2023-02-21T10:52:28.320Z,8.31
2023-02-21T10:55:31.307Z,8.22
2023-02-21T10:58:06.308Z,8.19
2023-02-21T11:00:37.273Z,8.17
2023-02-21T11:03:27.273Z,8.16
2023-02-21T11:05:59.627Z,8.15
2023-02-21T11:08:41.453Z,8.16
2023-02-21T11:11:08.386Z,8.12
2023-02-21T11:13:36.498Z,8.09
2023-02-21T11:16:17.331Z,8.15
2023-02-21T11:18:44.446Z,8.13
2023-02-21T11:21:16.937Z,8.13
2023-02-21T11:23:57.937Z,8.16
2023-02-21T11:26:25.070Z,8.05
2023-02-21T11:28:52.985Z,8.02
2023-02-21T11:31:32.159Z,8.00
2023-02-21T11:34:01.703Z,7.97
2023-02-21T11:36:36.806Z,7.95
2023-02-21T11:39:06.111Z,7.99
2023-02-21T11:41:57.372Z,8.02
2023-02-21T11:44:38.817Z,7.99
2023-02-21T11:47:21.684Z,7.96
2023-02-21T11:50:02.762Z,7.99
2023-02-21T11:52:37.329Z,8.11
2023-02-21T11:55:04.634Z,8.29
2023-02-21T11:57:35.952Z,8.39
2023-02-21T12:00:24.153Z,8.39
2023-02-21T12:03:22.549Z,8.48
2023-02-21T12:06:07.739Z,8.49
2023-02-21T12:08:56.715Z,8.42
2023-02-21T12:11:30.257Z,8.33
2023-02-21T12:14:14.096Z,8.32
2023-02-21T12:16:59.261Z,8.22
2023-02-21T12:19:47.461Z,8.05
2023-02-21T12:22:58.880Z,7.91
2023-02-21T12:25:44.065Z,8.02
2023-02-21T12:28:40.401Z,8.05
2023-02-21T12:31:22.326Z,7.96
2023-02-21T12:34:12.901Z,7.90
2023-02-21T12:36:56.775Z,7.83
2023-02-21T12:39:53.824Z,7.83
2023-02-21T12:42:36.989Z,7.88
2023-02-21T12:45:12.298Z,8.00
2023-02-21T12:47:48.717Z,8.06
2023-02-21T12:50:20.769Z,8.06
2023-02-21T12:53:02.717Z,7.98
2023-02-21T12:56:11.078Z,7.94
2023-02-21T12:58:53.977Z,7.94
2023-02-21T13:01:26.377Z,8.02
2023-02-21T13:04:22.748Z,7.95
2023-02-21T13:06:55.102Z,7.95
2023-02-21T13:09:39.147Z,7.96
2023-02-21T13:12:16.165Z,8.07
2023-02-21T13:14:49.284Z,8.20
2023-02-21T13:17:17.373Z,8.35
2023-02-21T13:19:49.779Z,8.48
2023-02-21T13:23:12.583Z,8.46
2023-02-21T13:26:05.032Z,8.31
2023-02-21T13:28:36.489Z,8.35
2023-02-21T13:31:06.009Z,8.39
2023-02-21T13:33:43.877Z,8.50
2023-02-21T13:36:22.938Z,8.43
2023-02-21T13:39:02.527Z,8.41
2023-02-21T13:41:34.208Z,8.25
2023-02-21T13:44:05.314Z,8.13
2023-02-21T13:46:31.655Z,7.99
2023-02-21T13:49:35.599Z,7.92
2023-02-21T13:52:23.414Z,7.90
2023-02-21T13:55:14.062Z,7.96
2023-02-21T13:57:46.143Z,8.03
2023-02-21T14:00:24.282Z,8.03
2023-02-21T14:03:05.575Z,7.93
2023-02-21T14:05:44.006Z,7.87
2023-02-21T14:08:22.195Z,7.89
2023-02-21T14:10:55.036Z,7.87
2023-02-21T14:13:33.186Z,7.88
2023-02-21T14:16:09.497Z,7.81
2023-02-21T14:18:39.022Z,7.81
2023-02-21T14:21:24.294Z,7.81
2023-02-21T14:23:58.627Z,7.84
2023-02-21T14:26:43.884Z,7.86
2023-02-21T14:29:15.152Z,7.82
2023-02-21T14:31:53.941Z,7.84
2023-02-21T14:34:28.213Z,7.79
2023-02-21T14:37:00.263Z,7.84
2023-02-21T14:39:34.291Z,7.87
2023-02-21T14:42:17.589Z,7.91
2023-02-21T14:45:11.867Z,7.99
2023-02-21T14:48:09.356Z,8.03
2023-02-21T14:50:44.613Z,7.99
2023-02-21T14:53:53.125Z,7.97
2023-02-21T14:56:58.784Z,7.95
2023-02-21T14:59:49.402Z,8.01
2023-02-21T15:02:40.000Z,8.05
2023-02-21T15:05:23.052Z,8.01
2023-02-21T15:07:49.345Z,8.07
2023-02-21T15:10:25.323Z,7.98
2023-02-21T15:12:55.294Z,7.92
2023-02-21T15:15:26.895Z,7.88
2023-02-21T15:18:06.115Z,7.87
2023-02-21T15:20:41.523Z,7.88
2023-02-21T15:23:16.690Z,7.96
2023-02-21T15:25:44.501Z,7.94
2023-02-21T15:28:26.135Z,7.95
2023-02-21T15:31:02.390Z,7.92
2023-02-21T15:33:34.034Z,7.88
2023-02-21T15:36:06.067Z,7.87
2023-02-21T15:38:37.754Z,7.82
2023-02-21T15:41:14.753Z,7.80
2023-02-21T15:43:56.641Z,7.77
2023-02-21T15:46:27.111Z,7.77
2023-02-21T15:48:59.789Z,7.77
2023-02-21T15:51:26.454Z,7.74
2023-02-21T15:54:21.217Z,7.72
2023-02-21T15:56:47.635Z,7.70
2023-02-21T15:59:26.370Z,7.70
2023-02-21T16:02:11.033Z,7.73
2023-02-21T16:04:55.633Z,7.69
2023-02-21T16:07:44.388Z,7.70
2023-02-21T16:10:14.369Z,7.67
2023-02-21T16:12:43.847Z,7.57
2023-02-21T16:15:25.219Z,7.50
2023-02-21T16:17:57.986Z,7.54
2023-02-21T16:20:30.634Z,7.55
2023-02-21T16:23:26.679Z,7.49
2023-02-21T16:25:59.084Z,7.50
2023-02-21T16:28:25.972Z,7.50
2023-02-21T16:30:52.782Z,7.51
2023-02-21T16:33:19.244Z,7.46
2023-02-21T16:35:45.639Z,7.39
2023-02-21T16:38:17.317Z,7.34
2023-02-21T16:40:43.980Z,7.30
2023-02-21T16:43:17.498Z,7.26
2023-02-21T16:45:44.055Z,7.21
2023-02-21T16:48:16.451Z,7.25
2023-02-21T16:50:44.029Z,7.29
2023-02-21T16:53:14.811Z,7.25
2023-02-21T16:55:45.083Z,7.22
2023-02-21T16:58:22.561Z,7.25
2023-02-21T17:00:48.980Z,7.23
2023-02-21T17:03:15.303Z,7.24
2023-02-21T17:05:41.926Z,7.25
2023-02-21T17:08:08.253Z,7.20
2023-02-21T17:10:34.710Z,7.17
2023-02-21T17:13:03.606Z,7.14
2023-02-21T17:15:32.065Z,7.19
2023-02-21T17:17:59.369Z,7.21
2023-02-21T17:20:26.124Z,7.17
2023-02-21T17:22:54.017Z,7.17
2023-02-21T17:25:23.005Z,7.15
2023-02-21T17:27:50.227Z,7.20
2023-02-21T17:30:18.414Z,7.20
2023-02-21T17:32:47.007Z,7.20
2023-02-21T17:35:15.320Z,7.21
2023-02-21T17:37:47.523Z,7.24
2023-02-21T17:40:14.252Z,7.25
2023-02-21T17:42:40.624Z,7.25
2023-02-21T17:45:07.645Z,7.24
2023-02-21T17:47:35.358Z,7.20
2023-02-21T17:50:03.663Z,7.18
2023-02-21T17:52:31.097Z,7.12
2023-02-21T17:54:57.836Z,7.13
2023-02-21T17:57:24.317Z,7.11
2023-02-21T17:59:50.832Z,7.13
2023-02-21T18:02:18.933Z,7.21
2023-02-21T18:04:45.774Z,7.25
2023-02-21T18:07:12.150Z,7.29
2023-02-21T18:09:38.530Z,7.33
2023-02-21T18:12:05.055Z,7.29
2023-02-21T18:14:32.134Z,7.24
2023-02-21T18:16:58.580Z,7.27
2023-02-21T18:19:25.405Z,7.30
2023-02-21T18:21:52.039Z,7.28
2023-02-21T18:24:19.193Z,7.28
2023-02-21T18:26:46.436Z,7.26
2023-02-21T18:29:12.934Z,7.25
2023-02-21T18:31:39.515Z,7.24
2023-02-21T18:34:07.569Z,7.23
2023-02-21T18:36:35.421Z,7.21
2023-02-21T18:39:01.986Z,7.16
2023-02-21T18:41:28.363Z,7.18
2023-02-21T18:43:54.737Z,7.17
2023-02-21T18:46:21.936Z,7.19
2023-02-21T18:48:50.256Z,7.25
2023-02-21T18:51:19.889Z,7.30
2023-02-21T18:53:48.381Z,7.28
2023-02-21T18:56:19.233Z,7.23
2023-02-21T18:58:46.874Z,7.21
2023-02-21T19:01:15.948Z,7.21
2023-02-21T19:03:42.674Z,7.22
2023-02-21T19:06:12.875Z,7.22
2023-02-21T19:08:39.530Z,7.18
2023-02-21T19:11:05.914Z,7.14
2023-02-21T19:13:32.289Z,7.21
2023-02-21T19:16:00.391Z,7.27
2023-02-21T19:18:28.177Z,7.26
2023-02-21T19:20:54.742Z,7.28
2023-02-21T19:23:21.105Z,7.28
2023-02-21T19:25:47.447Z,7.24
2023-02-21T19:28:13.862Z,7.19
2023-02-21T19:30:40.243Z,7.15
2023-02-21T19:33:09.361Z,7.17
2023-02-21T19:35:36.143Z,7.23
2023-02-21T19:38:07.511Z,7.28
2023-02-21T19:40:35.205Z,7.24
2023-02-21T19:43:02.680Z,7.25
2023-02-21T19:45:30.528Z,7.20
2023-02-21T19:47:57.048Z,7.21
2023-02-21T19:50:23.460Z,7.14
2023-02-21T19:52:56.153Z,7.18
2023-02-21T19:55:23.301Z,7.26
2023-02-21T19:57:49.717Z,7.34
2023-02-21T20:00:16.446Z,7.37
2023-02-21T20:02:44.521Z,7.37
2023-02-21T20:05:13.891Z,7.33
2023-02-21T20:07:41.332Z,7.25
2023-02-21T20:10:09.446Z,7.24
2023-02-21T20:12:35.955Z,7.19
2023-02-21T20:15:02.849Z,7.21
2023-02-21T20:17:31.531Z,7.12
2023-02-21T20:19:57.869Z,7.16
2023-02-21T20:22:25.538Z,7.09
2023-02-21T20:24:51.917Z,7.15
2023-02-21T20:27:18.342Z,7.18
2023-02-21T20:29:46.560Z,7.18
2023-02-21T20:32:15.641Z,7.19
2023-02-21T20:34:42.049Z,7.20
2023-02-21T20:37:11.093Z,7.14
2023-02-21T20:39:37.799Z,7.13
2023-02-21T20:42:06.977Z,7.12
2023-02-21T20:44:35.825Z,7.13
2023-02-21T20:47:03.979Z,7.18
2023-02-21T20:49:31.028Z,7.23
2023-02-21T20:51:58.321Z,7.22
2023-02-21T20:54:24.971Z,7.20
2023-02-21T20:56:57.102Z,7.19
2023-02-21T20:59:29.376Z,7.29
2023-02-21T21:01:57.935Z,7.27
2023-02-21T21:04:32.556Z,7.26
2023-02-21T21:07:08.771Z,7.27
2023-02-21T21:09:37.297Z,7.27
2023-02-21T21:12:07.251Z,7.33
2023-02-21T21:14:37.826Z,7.35
2023-02-21T21:17:04.498Z,7.41
2023-02-21T21:19:33.938Z,7.45
2023-02-21T21:22:06.024Z,7.50
2023-02-21T21:24:33.045Z,7.52
2023-02-21T21:27:06.333Z,7.54
2023-02-21T21:29:36.321Z,7.55
2023-02-21T21:32:05.316Z,7.54
2023-02-21T21:34:33.078Z,7.52
2023-02-21T21:37:01.870Z,7.52
2023-02-21T21:39:28.361Z,7.49
2023-02-21T21:41:58.670Z,7.39
2023-02-21T21:44:26.662Z,7.36
2023-02-21T21:46:54.162Z,7.36
2023-02-21T21:49:23.118Z,7.33
2023-02-21T21:51:50.017Z,7.25
2023-02-21T21:54:20.662Z,7.25
2023-02-21T21:56:48.575Z,7.28
2023-02-21T21:59:20.288Z,7.28
2023-02-21T22:01:47.475Z,7.26
2023-02-21T22:04:14.485Z,7.19
2023-02-21T22:06:41.823Z,7.15
2023-02-21T22:09:09.430Z,7.17
2023-02-21T22:11:36.505Z,7.13
2023-02-21T22:14:03.373Z,7.16
2023-02-21T22:16:37.660Z,7.20
2023-02-21T22:19:04.176Z,7.23
2023-02-21T22:21:31.717Z,7.20
2023-02-21T22:23:58.660Z,7.19
2023-02-21T22:26:26.512Z,7.12
2023-02-21T22:28:53.417Z,7.14
2023-02-21T22:31:20.709Z,7.17
2023-02-21T22:33:47.111Z,7.19
2023-02-21T22:36:14.828Z,7.19
2023-02-21T22:38:43.841Z,7.19
2023-02-21T22:41:23.566Z,7.20
2023-02-21T22:43:51.479Z,7.19
2023-02-21T22:46:18.962Z,7.12
2023-02-21T22:48:45.599Z,7.06
2023-02-21T22:51:14.593Z,7.15
2023-02-21T22:53:41.502Z,7.19
2023-02-21T22:56:11.911Z,7.14
2023-02-21T22:58:38.513Z,7.17
2023-02-21T23:01:08.165Z,7.16
2023-02-21T23:03:35.206Z,7.20
2023-02-21T23:06:02.195Z,7.19
2023-02-21T23:08:29.511Z,7.15
2023-02-21T23:10:55.846Z,7.11
2023-02-21T23:13:24.837Z,7.04
2023-02-21T23:15:55.620Z,7.11
2023-02-21T23:18:23.091Z,7.14
2023-02-21T23:20:52.968Z,7.14
2023-02-21T23:23:22.040Z,7.11
2023-02-21T23:25:48.434Z,7.03
2023-02-21T23:28:16.375Z,7.01
2023-02-21T23:30:43.097Z,7.05
2023-02-21T23:33:30.120Z,7.12
2023-02-21T23:35:57.211Z,7.16
2023-02-21T23:38:27.821Z,7.17
2023-02-21T23:40:56.454Z,7.17
2023-02-21T23:43:25.253Z,7.15
2023-02-21T23:45:52.935Z,7.11
2023-02-21T23:48:19.447Z,7.08
2023-02-21T23:50:47.013Z,7.07
2023-02-21T23:53:19.940Z,7.08
2023-02-21T23:55:47.495Z,7.08
2023-02-21T23:58:16.704Z,7.09
